sensor_id;sensor_type;location;lat;lon;timestamp;pressure;altitude;pressure_sealevel;temperature;humidity
46942;BME280;32676;52.630;4.896;2022-09-28T00:01:07;99118.41;;;9.12;87.75
46942;BME280;32676;52.630;4.896;2022-09-28T00:03:35;99119.16;;;9.14;87.63
46942;BME280;32676;52.630;4.896;2022-09-28T00:06:04;99123.50;;;9.15;87.82
46942;BME280;32676;52.630;4.896;2022-09-28T00:08:32;99120.28;;;9.10;87.85
46942;BME280;32676;52.630;4.896;2022-09-28T00:10:59;99138.28;;;9.16;87.79
46942;BME280;32676;52.630;4.896;2022-09-28T00:13:26;99145.13;;;9.19;88.00
46942;BME280;32676;52.630;4.896;2022-09-28T00:16:04;99142.44;;;9.20;88.16
46942;BME280;32676;52.630;4.896;2022-09-28T00:18:31;99144.28;;;9.18;88.02
46942;BME280;32676;52.630;4.896;2022-09-28T00:21:01;99142.53;;;9.19;88.18
46942;BME280;32676;52.630;4.896;2022-09-28T00:23:27;99140.91;;;9.16;88.14
46942;BME280;32676;52.630;4.896;2022-09-28T00:25:54;99144.28;;;9.18;88.18
46942;BME280;32676;52.630;4.896;2022-09-28T00:28:20;99130.41;;;9.16;88.09
46942;BME280;32676;52.630;4.896;2022-09-28T00:30:47;99129.66;;;9.14;88.04
46942;BME280;32676;52.630;4.896;2022-09-28T00:33:13;99129.66;;;9.14;88.03
46942;BME280;32676;52.630;4.896;2022-09-28T00:35:40;99120.13;;;9.13;88.01
46942;BME280;32676;52.630;4.896;2022-09-28T00:38:09;99114.09;;;9.11;87.89
46942;BME280;32676;52.630;4.896;2022-09-28T00:40:35;99106.41;;;9.08;87.84
46942;BME280;32676;52.630;4.896;2022-09-28T00:43:16;99107.16;;;9.10;87.91
46942;BME280;32676;52.630;4.896;2022-09-28T00:45:43;99117.56;;;9.12;87.87
46942;BME280;32676;52.630;4.896;2022-09-28T00:48:10;99124.50;;;9.13;87.75
46942;BME280;32676;52.630;4.896;2022-09-28T00:50:37;99118.56;;;9.09;87.67
46942;BME280;32676;52.630;4.896;2022-09-28T00:53:07;99118.41;;;9.12;87.48
46942;BME280;32676;52.630;4.896;2022-09-28T00:55:39;99127.97;;;9.13;87.43
46942;BME280;32676;52.630;4.896;2022-09-28T00:58:09;99117.56;;;9.12;87.33
46942;BME280;32676;52.630;4.896;2022-09-28T01:00:38;99115.19;;;9.07;87.23
46942;BME280;32676;52.630;4.896;2022-09-28T01:03:06;99127.09;;;9.13;87.47
46942;BME280;32676;52.630;4.896;2022-09-28T01:05:33;99124.41;;;9.14;87.26
46942;BME280;32676;52.630;4.896;2022-09-28T01:08:00;99132.28;;;9.14;87.37
46942;BME280;32676;52.630;4.896;2022-09-28T01:10:28;99138.34;;;9.15;87.43
46942;BME280;32676;52.630;4.896;2022-09-28T01:12:56;99139.22;;;9.15;87.43
46942;BME280;32676;52.630;4.896;2022-09-28T01:15:25;99126.19;;;9.14;87.24
46942;BME280;32676;52.630;4.896;2022-09-28T01:18:00;99125.44;;;9.12;87.35
46942;BME280;32676;52.630;4.896;2022-09-28T01:20:37;99106.41;;;9.08;87.40
46942;BME280;32676;52.630;4.896;2022-09-28T01:26:38;99095.31;;;9.03;87.36
46942;BME280;32676;52.630;4.896;2022-09-28T01:29:14;99078.84;;;9.01;87.41
46942;BME280;32676;52.630;4.896;2022-09-28T01:31:45;99071.22;;;8.96;87.38
46942;BME280;32676;52.630;4.896;2022-09-28T01:34:16;99060.81;;;8.95;87.45
46942;BME280;32676;52.630;4.896;2022-09-28T01:36:47;99046.06;;;8.94;87.34
46942;BME280;32676;52.630;4.896;2022-09-28T01:39:17;99030.50;;;8.91;87.37
46942;BME280;32676;52.630;4.896;2022-09-28T01:41:49;99021.13;;;8.87;87.22
46942;BME280;32676;52.630;4.896;2022-09-28T01:44:19;99001.44;;;8.79;87.27
46942;BME280;32676;52.630;4.896;2022-09-28T01:46:48;98989.38;;;8.77;87.15
46942;BME280;32676;52.630;4.896;2022-09-28T01:49:18;98972.03;;;8.74;87.03
46942;BME280;32676;52.630;4.896;2022-09-28T01:51:50;98961.72;;;8.71;86.96
46942;BME280;32676;52.630;4.896;2022-09-28T01:54:20;98936.03;;;8.62;86.93
46942;BME280;32676;52.630;4.896;2022-09-28T01:56:52;98928.09;;;8.63;87.00
46942;BME280;32676;52.630;4.896;2022-09-28T01:59:22;98906.66;;;8.57;87.05
46942;BME280;32676;52.630;4.896;2022-09-28T02:01:53;98908.34;;;8.58;87.03
46942;BME280;32676;52.630;4.896;2022-09-28T02:04:24;98899.91;;;8.53;87.04
46942;BME280;32676;52.630;4.896;2022-09-28T02:06:56;98883.44;;;8.51;87.20
46942;BME280;32676;52.630;4.896;2022-09-28T02:09:27;98874.06;;;8.47;87.05
46942;BME280;32676;52.630;4.896;2022-09-28T02:11:59;98867.06;;;8.47;87.23
46942;BME280;32676;52.630;4.896;2022-09-28T02:14:28;98860.22;;;8.44;87.29
46942;BME280;32676;52.630;4.896;2022-09-28T02:16:56;98854.13;;;8.44;87.43
46942;BME280;32676;52.630;4.896;2022-09-28T02:19:25;98851.63;;;8.42;87.53
46942;BME280;32676;52.630;4.896;2022-09-28T02:21:55;98845.44;;;8.43;87.48
46942;BME280;32676;52.630;4.896;2022-09-28T02:24:27;98839.56;;;8.38;87.39
46942;BME280;32676;52.630;4.896;2022-09-28T02:27:08;98827.44;;;8.37;87.62
46942;BME280;32676;52.630;4.896;2022-09-28T02:29:37;98823.13;;;8.36;87.42
46942;BME280;32676;52.630;4.896;2022-09-28T02:32:04;98815.47;;;8.33;87.40
46942;BME280;32676;52.630;4.896;2022-09-28T02:34:30;98794.69;;;8.30;87.52
46942;BME280;32676;52.630;4.896;2022-09-28T02:36:57;98783.56;;;8.26;87.29
46942;BME280;32676;52.630;4.896;2022-09-28T02:39:24;98769.03;;;8.21;87.17
46942;BME280;32676;52.630;4.896;2022-09-28T02:41:54;98764.72;;;8.20;87.29
46942;BME280;32676;52.630;4.896;2022-09-28T02:44:39;98749.97;;;8.19;87.30
46942;BME280;32676;52.630;4.896;2022-09-28T02:47:14;98743.41;;;8.12;87.26
46942;BME280;32676;52.630;4.896;2022-09-28T02:49:49;98753.50;;;8.18;87.34
46942;BME280;32676;52.630;4.896;2022-09-28T02:52:32;98748.28;;;8.18;87.41
46942;BME280;32676;52.630;4.896;2022-09-28T02:55:18;98736.31;;;8.14;87.36
46942;BME280;32676;52.630;4.896;2022-09-28T02:58:02;98742.22;;;8.17;87.35
46942;BME280;32676;52.630;4.896;2022-09-28T03:00:40;98756.88;;;8.20;87.55
46942;BME280;32676;52.630;4.896;2022-09-28T03:03:17;98765.66;;;8.19;87.56
46942;BME280;32676;52.630;4.896;2022-09-28T03:05:52;98772.41;;;8.23;87.63
46942;BME280;32676;52.630;4.896;2022-09-28T03:08:26;98767.25;;;8.21;87.71
46942;BME280;32676;52.630;4.896;2022-09-28T03:10:57;98762.09;;;8.20;87.83
46942;BME280;32676;52.630;4.896;2022-09-28T03:13:27;98778.56;;;8.22;87.86
46942;BME280;32676;52.630;4.896;2022-09-28T03:16:09;98767.34;;;8.20;87.84
46942;BME280;32676;52.630;4.896;2022-09-28T03:18:36;98770.72;;;8.22;87.83
46942;BME280;32676;52.630;4.896;2022-09-28T03:21:03;98758.91;;;8.15;87.77
46942;BME280;32676;52.630;4.896;2022-09-28T03:23:30;98749.38;;;8.14;88.00
46942;BME280;32676;52.630;4.896;2022-09-28T03:25:57;98740.88;;;8.10;87.89
46942;BME280;32676;52.630;4.896;2022-09-28T03:28:25;98742.38;;;8.14;87.74
46942;BME280;32676;52.630;4.896;2022-09-28T03:30:52;98739.84;;;8.13;87.64
46942;BME280;32676;52.630;4.896;2022-09-28T03:33:21;98710.66;;;8.04;87.83
46942;BME280;32676;52.630;4.896;2022-09-28T03:35:48;98715.69;;;8.07;87.56
46942;BME280;32676;52.630;4.896;2022-09-28T03:38:14;98712.34;;;8.05;87.45
46942;BME280;32676;52.630;4.896;2022-09-28T03:40:42;98693.78;;;7.94;87.40
46942;BME280;32676;52.630;4.896;2022-09-28T03:43:08;98694.22;;;8.02;87.42
46942;BME280;32676;52.630;4.896;2022-09-28T03:45:35;98696.91;;;8.01;87.46
46942;BME280;32676;52.630;4.896;2022-09-28T03:48:01;98705.50;;;8.03;87.39
46942;BME280;32676;52.630;4.896;2022-09-28T03:50:29;98703.72;;;8.03;87.64
46942;BME280;32676;52.630;4.896;2022-09-28T03:53:01;98703.72;;;8.03;87.75
46942;BME280;32676;52.630;4.896;2022-09-28T03:55:27;98702.91;;;8.03;87.74
46942;BME280;32676;52.630;4.896;2022-09-28T03:57:53;98712.34;;;8.05;87.79
46942;BME280;32676;52.630;4.896;2022-09-28T04:00:20;98704.75;;;8.01;87.84
46942;BME280;32676;52.630;4.896;2022-09-28T04:02:47;98707.28;;;8.02;87.97
46942;BME280;32676;52.630;4.896;2022-09-28T04:05:13;98694.28;;;8.01;87.90
46942;BME280;32676;52.630;4.896;2022-09-28T04:07:41;98692.69;;;7.98;87.84
46942;BME280;32676;52.630;4.896;2022-09-28T04:10:08;98690.25;;;7.95;87.86
46942;BME280;32676;52.630;4.896;2022-09-28T04:12:34;98675.47;;;7.94;87.76
46942;BME280;32676;52.630;4.896;2022-09-28T04:15:01;98668.59;;;7.93;87.58
46942;BME280;32676;52.630;4.896;2022-09-28T04:17:27;98660.91;;;7.90;87.55
46942;BME280;32676;52.630;4.896;2022-09-28T04:19:54;98657.34;;;7.91;87.54
46942;BME280;32676;52.630;4.896;2022-09-28T04:22:20;98664.28;;;7.92;87.58
46942;BME280;32676;52.630;4.896;2022-09-28T04:24:48;98659.22;;;7.89;87.29
46942;BME280;32676;52.630;4.896;2022-09-28T04:27:15;98635.00;;;7.85;87.32
46942;BME280;32676;52.630;4.896;2022-09-28T04:29:59;98632.47;;;7.84;87.21
46942;BME280;32676;52.630;4.896;2022-09-28T04:32:25;98628.34;;;7.80;87.16
46942;BME280;32676;52.630;4.896;2022-09-28T04:34:52;98607.63;;;7.77;87.27
46942;BME280;32676;52.630;4.896;2022-09-28T04:37:19;98612.84;;;7.77;87.21
46942;BME280;32676;52.630;4.896;2022-09-28T04:39:45;98601.63;;;7.75;87.26
46942;BME280;32676;52.630;4.896;2022-09-28T04:42:13;98587.81;;;7.73;87.23
46942;BME280;32676;52.630;4.896;2022-09-28T04:44:40;98574.94;;;7.69;87.36
46942;BME280;32676;52.630;4.896;2022-09-28T04:47:06;98564.63;;;7.66;87.46
46942;BME280;32676;52.630;4.896;2022-09-28T04:49:32;98554.34;;;7.63;87.46
46942;BME280;32676;52.630;4.896;2022-09-28T04:52:01;98533.13;;;7.54;87.55
46942;BME280;32676;52.630;4.896;2022-09-28T04:54:27;98519.97;;;7.55;87.46
46942;BME280;32676;52.630;4.896;2022-09-28T04:56:54;98498.50;;;7.50;87.32
46942;BME280;32676;52.630;4.896;2022-09-28T04:59:21;98500.16;;;7.51;87.27
46942;BME280;32676;52.630;4.896;2022-09-28T05:01:48;98485.97;;;7.41;87.22
46942;BME280;32676;52.630;4.896;2022-09-28T05:04:14;98494.38;;;7.46;87.46
46942;BME280;32676;52.630;4.896;2022-09-28T05:06:41;98480.44;;;7.45;87.40
46942;BME280;32676;52.630;4.896;2022-09-28T05:09:07;98454.09;;;7.34;87.58
46942;BME280;32676;52.630;4.896;2022-09-28T05:11:34;98456.63;;;7.36;87.38
46942;BME280;32676;52.630;4.896;2022-09-28T05:14:01;98430.00;;;7.29;87.28
46942;BME280;32676;52.630;4.896;2022-09-28T05:16:29;98425.72;;;7.28;87.21
46942;BME280;32676;52.630;4.896;2022-09-28T05:18:58;98430.69;;;7.33;87.32
46942;BME280;32676;52.630;4.896;2022-09-28T05:21:24;98429.00;;;7.32;87.38
46942;BME280;32676;52.630;4.896;2022-09-28T05:23:52;98434.97;;;7.34;87.45
46942;BME280;32676;52.630;4.896;2022-09-28T05:26:21;98442.91;;;7.32;87.37
46942;BME280;32676;52.630;4.896;2022-09-28T05:28:47;98456.63;;;7.36;87.60
46942;BME280;32676;52.630;4.896;2022-09-28T05:31:15;98446.19;;;7.36;87.77
46942;BME280;32676;52.630;4.896;2022-09-28T05:33:44;98452.25;;;7.36;87.94
46942;BME280;32676;52.630;4.896;2022-09-28T05:36:11;98456.47;;;7.39;87.80
46942;BME280;32676;52.630;4.896;2022-09-28T05:38:37;98477.16;;;7.42;88.10
46942;BME280;32676;52.630;4.896;2022-09-28T05:41:04;98485.75;;;7.44;88.06
46942;BME280;32676;52.630;4.896;2022-09-28T05:43:31;98494.38;;;7.46;88.11
46942;BME280;32676;52.630;4.896;2022-09-28T05:45:58;98500.44;;;7.46;88.30
46942;BME280;32676;52.630;4.896;2022-09-28T05:48:25;98509.78;;;7.50;88.41
46942;BME280;32676;52.630;4.896;2022-09-28T05:50:53;98505.75;;;7.45;88.57
46942;BME280;32676;52.630;4.896;2022-09-28T05:53:19;98521.06;;;7.51;88.49
46942;BME280;32676;52.630;4.896;2022-09-28T05:55:46;98536.50;;;7.56;88.68
46942;BME280;32676;52.630;4.896;2022-09-28T05:58:13;98545.91;;;7.58;88.71
46942;BME280;32676;52.630;4.896;2022-09-28T06:00:40;98556.22;;;7.61;88.63
46942;BME280;32676;52.630;4.896;2022-09-28T06:03:07;98566.50;;;7.64;88.71
46942;BME280;32676;52.630;4.896;2022-09-28T06:05:36;98587.41;;;7.64;88.75
46942;BME280;32676;52.630;4.896;2022-09-28T06:08:06;98602.72;;;7.71;88.79
46942;BME280;32676;52.630;4.896;2022-09-28T06:10:33;98619.91;;;7.75;88.98
46942;BME280;32676;52.630;4.896;2022-09-28T06:13:00;98631.03;;;7.78;88.88
46942;BME280;32676;52.630;4.896;2022-09-28T06:15:30;98654.34;;;7.83;88.94
46942;BME280;32676;52.630;4.896;2022-09-28T06:17:57;98659.91;;;7.77;88.92
46942;BME280;32676;52.630;4.896;2022-09-28T06:20:24;98687.81;;;7.92;88.86
46942;BME280;32676;52.630;4.896;2022-09-28T06:22:51;98705.94;;;7.95;88.78
46942;BME280;32676;52.630;4.896;2022-09-28T06:25:19;98723.97;;;8.00;88.72
46942;BME280;32676;52.630;4.896;2022-09-28T06:27:57;98736.81;;;8.04;88.61
46942;BME280;32676;52.630;4.896;2022-09-28T06:30:24;98758.41;;;8.08;88.65
46942;BME280;32676;52.630;4.896;2022-09-28T06:32:52;98783.56;;;8.11;88.57
46942;BME280;32676;52.630;4.896;2022-09-28T06:35:19;98816.13;;;8.21;88.50
46942;BME280;32676;52.630;4.896;2022-09-28T06:37:45;98828.94;;;8.25;88.56
46942;BME280;32676;52.630;4.896;2022-09-28T06:40:12;98864.41;;;8.31;88.69
46942;BME280;32676;52.630;4.896;2022-09-28T06:42:40;98880.69;;;8.36;88.56
46942;BME280;32676;52.630;4.896;2022-09-28T06:45:07;98908.34;;;8.42;88.69
46942;BME280;32676;52.630;4.896;2022-09-28T06:47:34;98935.03;;;8.49;88.67
46942;BME280;32676;52.630;4.896;2022-09-28T06:50:02;98961.81;;;8.54;88.65
46942;BME280;32676;52.630;4.896;2022-09-28T06:52:28;98982.41;;;8.60;88.54
46942;BME280;32676;52.630;4.896;2022-09-28T06:54:55;99007.31;;;8.67;88.67
46942;BME280;32676;52.630;4.896;2022-09-28T06:57:21;99039.19;;;8.75;88.53
46942;BME280;32676;52.630;4.896;2022-09-28T06:59:49;99076.28;;;8.83;88.55
46942;BME280;32676;52.630;4.896;2022-09-28T07:02:15;99110.78;;;8.92;88.56
46942;BME280;32676;52.630;4.896;2022-09-28T07:04:42;99152.22;;;9.01;88.64
46942;BME280;32676;52.630;4.896;2022-09-28T07:07:09;99191.03;;;9.10;88.67
46942;BME280;32676;52.630;4.896;2022-09-28T07:09:36;99239.31;;;9.22;88.74
46942;BME280;32676;52.630;4.896;2022-09-28T07:12:03;99280.69;;;9.33;88.70
46942;BME280;32676;52.630;4.896;2022-09-28T07:14:29;99329.09;;;9.43;88.69
46942;BME280;32676;52.630;4.896;2022-09-28T07:16:59;99362.78;;;9.51;88.63
46942;BME280;32676;52.630;4.896;2022-09-28T07:19:26;99400.94;;;9.56;88.55
46942;BME280;32676;52.630;4.896;2022-09-28T07:21:53;99444.91;;;9.69;88.67
46942;BME280;32676;52.630;4.896;2022-09-28T07:24:21;99480.25;;;9.79;88.33
46942;BME280;32676;52.630;4.896;2022-09-28T07:26:47;99530.41;;;9.90;88.41
46942;BME280;32676;52.630;4.896;2022-09-28T07:29:14;99566.75;;;9.98;88.21
46942;BME280;32676;52.630;4.896;2022-09-28T07:31:40;99607.28;;;10.10;88.23
46942;BME280;32676;52.630;4.896;2022-09-28T07:34:08;99641.84;;;10.18;87.93
46942;BME280;32676;52.630;4.896;2022-09-28T07:36:35;99688.66;;;10.27;87.86
46942;BME280;32676;52.630;4.896;2022-09-28T07:39:03;99718.06;;;10.35;87.66
46942;BME280;32676;52.630;4.896;2022-09-28T07:41:29;99750.91;;;10.44;87.64
46942;BME280;32676;52.630;4.896;2022-09-28T07:43:58;99776.91;;;10.49;87.10
46942;BME280;32676;52.630;4.896;2022-09-28T07:46:31;99823.59;;;10.61;86.66
46942;BME280;32676;52.630;4.896;2022-09-28T07:48:57;99856.47;;;10.70;86.44
46942;BME280;32676;52.630;4.896;2022-09-28T07:51:25;99883.28;;;10.76;85.90
46942;BME280;32676;52.630;4.896;2022-09-28T07:53:51;99921.47;;;10.84;85.60
46942;BME280;32676;52.630;4.896;2022-09-28T07:56:19;99938.81;;;10.88;85.08
46942;BME280;32676;52.630;4.896;2022-09-28T07:58:46;99976.09;;;10.96;84.64
46942;BME280;32676;52.630;4.896;2022-09-28T08:01:13;100003.78;;;11.03;83.93
46942;BME280;32676;52.630;4.896;2022-09-28T08:03:41;100022.91;;;11.07;83.37
46942;BME280;32676;52.630;4.896;2022-09-28T08:06:10;100062.75;;;11.17;82.92
46942;BME280;32676;52.630;4.896;2022-09-28T08:08:39;100082.75;;;11.21;82.52
46942;BME280;32676;52.630;4.896;2022-09-28T08:11:08;100115.72;;;11.28;81.76
46942;BME280;32676;52.630;4.896;2022-09-28T08:13:35;100135.69;;;11.32;82.03
46942;BME280;32676;52.630;4.896;2022-09-28T08:16:02;100165.03;;;11.42;82.03
46942;BME280;32676;52.630;4.896;2022-09-28T08:18:32;100200.72;;;11.47;82.05
46942;BME280;32676;52.630;4.896;2022-09-28T08:20:59;100238.84;;;11.58;82.32
46942;BME280;32676;52.630;4.896;2022-09-28T08:23:44;100250.16;;;11.60;82.14
46942;BME280;32676;52.630;4.896;2022-09-28T08:26:11;100283.94;;;11.69;81.65
46942;BME280;32676;52.630;4.896;2022-09-28T08:28:37;100295.19;;;11.72;80.98
46942;BME280;32676;52.630;4.896;2022-09-28T08:31:04;100319.53;;;11.78;80.37
46942;BME280;32676;52.630;4.896;2022-09-28T08:33:32;100344.72;;;11.83;79.58
46942;BME280;32676;52.630;4.896;2022-09-28T08:36:00;100369.03;;;11.90;79.46
46942;BME280;32676;52.630;4.896;2022-09-28T08:38:29;100378.56;;;11.93;78.99
46942;BME280;32676;52.630;4.896;2022-09-28T08:41:07;100410.16;;;11.93;78.22
46942;BME280;32676;52.630;4.896;2022-09-28T08:44:07;100446.34;;;12.08;77.55
46942;BME280;32676;52.630;4.896;2022-09-28T08:46:38;100472.41;;;12.14;76.72
46942;BME280;32676;52.630;4.896;2022-09-28T08:49:10;100490.84;;;12.14;76.55
46942;BME280;32676;52.630;4.896;2022-09-28T08:51:43;100523.59;;;12.27;76.55
46942;BME280;32676;52.630;4.896;2022-09-28T08:54:21;100558.38;;;12.36;75.87
46942;BME280;32676;52.630;4.896;2022-09-28T08:56:53;100586.19;;;12.43;75.33
46942;BME280;32676;52.630;4.896;2022-09-28T08:59:23;100603.44;;;12.50;75.65
46942;BME280;32676;52.630;4.896;2022-09-28T09:01:54;100641.06;;;12.54;75.47
46942;BME280;32676;52.630;4.896;2022-09-28T09:04:21;100661.81;;;12.61;74.77
46942;BME280;32676;52.630;4.896;2022-09-28T09:07:10;100703.66;;;12.69;74.84
46942;BME280;32676;52.630;4.896;2022-09-28T09:09:49;100744.47;;;12.81;73.75
46942;BME280;32676;52.630;4.896;2022-09-28T09:12:29;100795.88;;;12.91;73.76
46942;BME280;32676;52.630;4.896;2022-09-28T09:15:20;100836.91;;;12.98;73.61
46942;BME280;32676;52.630;4.896;2022-09-28T09:18:00;100888.16;;;13.13;73.38
46942;BME280;32676;52.630;4.896;2022-09-28T09:20:36;100942.13;;;13.27;72.11
46942;BME280;32676;52.630;4.896;2022-09-28T09:23:13;101009.28;;;13.41;71.51
46942;BME280;32676;52.630;4.896;2022-09-28T09:25:47;101073.75;;;13.58;70.21
46942;BME280;32676;52.630;4.896;2022-09-28T09:31:25;101110.34;;;13.67;71.21
46942;BME280;32676;52.630;4.896;2022-09-28T09:34:19;101092.06;;;13.62;72.26
46942;BME280;32676;52.630;4.896;2022-09-28T09:37:06;101049.19;;;13.56;71.87
46942;BME280;32676;52.630;4.896;2022-09-28T09:39:49;101015.25;;;13.47;72.24
46942;BME280;32676;52.630;4.896;2022-09-28T09:42:45;100970.88;;;13.34;73.25
46942;BME280;32676;52.630;4.896;2022-09-28T09:45:38;100955.91;;;13.35;73.55
46942;BME280;32676;52.630;4.896;2022-09-28T09:48:14;100929.00;;;13.25;73.16
46942;BME280;32676;52.630;4.896;2022-09-28T09:50:46;100928.88;;;13.28;72.89
46942;BME280;32676;52.630;4.896;2022-09-28T09:53:19;100941.13;;;13.29;73.42
46942;BME280;32676;52.630;4.896;2022-09-28T09:55:53;100960.31;;;13.34;72.29
46942;BME280;32676;52.630;4.896;2022-09-28T09:58:25;101004.69;;;13.47;71.52
46942;BME280;32676;52.630;4.896;2022-09-28T10:00:58;101028.19;;;13.53;71.12
46942;BME280;32676;52.630;4.896;2022-09-28T10:03:29;101029.91;;;13.54;70.96
46942;BME280;32676;52.630;4.896;2022-09-28T10:05:59;101031.63;;;13.55;70.44
46942;BME280;32676;52.630;4.896;2022-09-28T10:08:30;101026.47;;;13.52;70.16
46942;BME280;32676;52.630;4.896;2022-09-28T10:11:04;101022.16;;;13.49;70.12
46942;BME280;32676;52.630;4.896;2022-09-28T10:13:33;101071.78;;;13.63;71.10
46942;BME280;32676;52.630;4.896;2022-09-28T10:16:01;101090.94;;;13.68;71.12
46942;BME280;32676;52.630;4.896;2022-09-28T10:18:29;101117.94;;;13.75;71.72
46942;BME280;32676;52.630;4.896;2022-09-28T10:20:55;101148.41;;;13.83;71.28
46942;BME280;32676;52.630;4.896;2022-09-28T10:23:24;101175.63;;;13.86;70.35
46942;BME280;32676;52.630;4.896;2022-09-28T10:25:55;101199.91;;;13.95;70.45
46942;BME280;32676;52.630;4.896;2022-09-28T10:28:31;101220.94;;;13.97;68.89
46942;BME280;32676;52.630;4.896;2022-09-28T10:30:59;101261.84;;;14.10;68.15
46942;BME280;32676;52.630;4.896;2022-09-28T10:33:30;101291.44;;;14.18;67.64
46942;BME280;32676;52.630;4.896;2022-09-28T10:35:58;101315.06;;;14.23;65.88
46942;BME280;32676;52.630;4.896;2022-09-28T10:38:25;101343.88;;;14.29;65.43
46942;BME280;32676;52.630;4.896;2022-09-28T10:40:54;101342.97;;;14.30;66.23
46942;BME280;32676;52.630;4.896;2022-09-28T10:43:25;101349.00;;;14.34;66.41
46942;BME280;32676;52.630;4.896;2022-09-28T10:46:04;101366.47;;;14.38;66.00
46942;BME280;32676;52.630;4.896;2022-09-28T10:48:46;101420.66;;;14.50;65.81
46942;BME280;32676;52.630;4.896;2022-09-28T10:51:15;101423.16;;;14.53;66.53
46942;BME280;32676;52.630;4.896;2022-09-28T10:53:57;101420.56;;;14.51;66.36
46942;BME280;32676;52.630;4.896;2022-09-28T10:56:27;101405.69;;;14.49;66.34
46942;BME280;32676;52.630;4.896;2022-09-28T10:58:53;101383.91;;;14.42;66.30
46942;BME280;32676;52.630;4.896;2022-09-28T11:01:22;101354.09;;;14.38;65.55
46942;BME280;32676;52.630;4.896;2022-09-28T11:03:55;101326.13;;;14.33;64.86
46942;BME280;32676;52.630;4.896;2022-09-28T11:06:23;101295.56;;;14.26;64.32
46942;BME280;32676;52.630;4.896;2022-09-28T11:08:52;101254.59;;;14.15;63.63
46942;BME280;32676;52.630;4.896;2022-09-28T11:11:20;101254.44;;;14.18;63.70
46942;BME280;32676;52.630;4.896;2022-09-28T11:13:48;101277.19;;;14.23;64.00
46942;BME280;32676;52.630;4.896;2022-09-28T11:16:26;101299.00;;;14.28;64.51
46942;BME280;32676;52.630;4.896;2022-09-28T11:18:57;101324.25;;;14.35;64.88
46942;BME280;32676;52.630;4.896;2022-09-28T11:21:26;101351.34;;;14.42;63.17
46942;BME280;32676;52.630;4.896;2022-09-28T11:23:56;101369.59;;;14.48;63.48
46942;BME280;32676;52.630;4.896;2022-09-28T11:26:23;101395.84;;;14.52;63.28
46942;BME280;32676;52.630;4.896;2022-09-28T11:28:50;101402.84;;;14.53;62.36
46942;BME280;32676;52.630;4.896;2022-09-28T11:31:24;101395.97;;;14.49;62.21
46942;BME280;32676;52.630;4.896;2022-09-28T11:34:03;101403.69;;;14.55;61.36
46942;BME280;32676;52.630;4.896;2022-09-28T11:36:44;101389.56;;;14.55;60.95
46942;BME280;32676;52.630;4.896;2022-09-28T11:39:21;101405.38;;;14.58;61.40
46942;BME280;32676;52.630;4.896;2022-09-28T11:41:58;101436.78;;;14.66;62.60
46942;BME280;32676;52.630;4.896;2022-09-28T11:44:38;101463.03;;;14.72;64.13
46942;BME280;32676;52.630;4.896;2022-09-28T11:47:36;101484.84;;;14.77;64.75
46942;BME280;32676;52.630;4.896;2022-09-28T11:50:17;101485.78;;;14.76;65.03
46942;BME280;32676;52.630;4.896;2022-09-28T11:52:49;101485.66;;;14.79;65.20
46942;BME280;32676;52.630;4.896;2022-09-28T11:55:22;101493.47;;;14.82;66.12
46942;BME280;32676;52.630;4.896;2022-09-28T11:57:55;101470.72;;;14.78;66.74
46942;BME280;32676;52.630;4.896;2022-09-28T12:00:23;101444.50;;;14.72;66.58
46942;BME280;32676;52.630;4.896;2022-09-28T12:02:54;101425.31;;;14.67;67.21
46942;BME280;32676;52.630;4.896;2022-09-28T12:05:26;101407.94;;;14.59;67.63
46942;BME280;32676;52.630;4.896;2022-09-28T12:07:55;101376.28;;;14.56;67.72
46942;BME280;32676;52.630;4.896;2022-09-28T12:10:33;101350.09;;;14.50;68.46
46942;BME280;32676;52.630;4.896;2022-09-28T12:13:03;101354.41;;;14.53;68.79
46942;BME280;32676;52.630;4.896;2022-09-28T12:15:41;101371.84;;;14.58;69.00
46942;BME280;32676;52.630;4.896;2022-09-28T12:18:13;101398.97;;;14.64;69.30
46942;BME280;32676;52.630;4.896;2022-09-28T12:20:46;101419.16;;;14.66;68.21
46942;BME280;32676;52.630;4.896;2022-09-28T12:23:17;101461.84;;;14.79;68.84
46942;BME280;32676;52.630;4.896;2022-09-28T12:25:49;101483.69;;;14.84;67.98
46942;BME280;32676;52.630;4.896;2022-09-28T12:28:23;101540.50;;;14.97;68.12
46942;BME280;32676;52.630;4.896;2022-09-28T12:30:53;101601.72;;;15.12;67.19
46942;BME280;32676;52.630;4.896;2022-09-28T12:33:21;101651.53;;;15.24;66.58
46942;BME280;32676;52.630;4.896;2022-09-28T12:36:00;101702.16;;;15.39;65.33
46942;BME280;32676;52.630;4.896;2022-09-28T12:38:41;101750.31;;;15.50;64.69
46942;BME280;32676;52.630;4.896;2022-09-28T12:41:30;101821.31;;;15.64;64.47
46942;BME280;32676;52.630;4.896;2022-09-28T12:44:25;101879.94;;;15.80;63.47
46942;BME280;32676;52.630;4.896;2022-09-28T12:47:08;101924.59;;;15.90;63.28
46942;BME280;32676;52.630;4.896;2022-09-28T12:49:48;101978.03;;;16.03;62.83
46942;BME280;32676;52.630;4.896;2022-09-28T12:52:28;102000.84;;;16.07;61.47
46942;BME280;32676;52.630;4.896;2022-09-28T12:55:20;102071.78;;;16.26;61.21
46942;BME280;32676;52.630;4.896;2022-09-28T12:57:57;102144.59;;;16.42;60.85
46942;BME280;32676;52.630;4.896;2022-09-28T13:00:30;102172.59;;;16.51;60.57
46942;BME280;32676;52.630;4.896;2022-09-28T13:03:34;102229.59;;;16.64;60.55
46942;BME280;32676;52.630;4.896;2022-09-28T13:06:24;102240.97;;;16.68;60.29
46942;BME280;32676;52.630;4.896;2022-09-28T13:09:10;102257.63;;;16.73;59.78
46942;BME280;32676;52.630;4.896;2022-09-28T13:11:44;102256.72;;;16.74;59.92
46942;BME280;32676;52.630;4.896;2022-09-28T13:14:33;102267.22;;;16.77;59.94
46942;BME280;32676;52.630;4.896;2022-09-28T13:17:13;102237.41;;;16.69;60.44
46942;BME280;32676;52.630;4.896;2022-09-28T13:19:49;102251.41;;;16.74;60.71
46942;BME280;32676;52.630;4.896;2022-09-28T13:22:27;102232.00;;;16.72;60.16
46942;BME280;32676;52.630;4.896;2022-09-28T13:25:03;102172.28;;;16.59;58.21
46942;BME280;32676;52.630;4.896;2022-09-28T13:27:36;102108.25;;;16.44;57.85
46942;BME280;32676;52.630;4.896;2022-09-28T13:30:05;102045.09;;;16.30;58.72